sensor_id;sensor_type;location;lat;lon;timestamp;pressure;altitude;pressure_sealevel;temperature;humidity
49529;BME280;35423;37.320;-121.762;2023-05-08T00:01:53;100190.25;;;32.40;15.03
49529;BME280;35423;37.320;-121.762;2023-05-08T00:04:18;100187.11;;;32.60;15.10
49529;BME280;35423;37.320;-121.762;2023-05-08T00:06:46;100183.13;;;32.37;15.06
49529;BME280;35423;37.320;-121.762;2023-05-08T00:09:11;100180.08;;;32.54;15.12
49529;BME280;35423;37.320;-121.762;2023-05-08T00:11:38;100178.02;;;32.31;15.08
49529;BME280;35423;37.320;-121.762;2023-05-08T00:14:03;100176.40;;;32.29;15.13
49529;BME280;35423;37.320;-121.762;2023-05-08T00:16:35;100168.66;;;32.25;15.01
49529;BME280;35423;37.320;-121.762;2023-05-08T00:19:00;100167.63;;;32.21;15.07
49529;BME280;35423;37.320;-121.762;2023-05-08T00:21:26;100167.24;;;32.62;15.13
49529;BME280;35423;37.320;-121.762;2023-05-08T00:23:55;100162.36;;;32.51;15.23
49529;BME280;35423;37.320;-121.762;2023-05-08T00:26:22;100162.96;;;32.05;15.25
49529;BME280;35423;37.320;-121.762;2023-05-08T00:28:49;100164.30;;;32.21;15.16
49529;BME280;35423;37.320;-121.762;2023-05-08T00:31:21;100159.33;;;32.30;15.11
49529;BME280;35423;37.320;-121.762;2023-05-08T00:33:51;100160.10;;;31.72;15.27
49529;BME280;35423;37.320;-121.762;2023-05-08T00:36:11;100157.41;;;31.79;15.45
49529;BME280;35423;37.320;-121.762;2023-05-08T00:38:37;100161.24;;;32.22;15.51
49529;BME280;35423;37.320;-121.762;2023-05-08T00:41:03;100160.24;;;31.93;15.53
49529;BME280;35423;37.320;-121.762;2023-05-08T00:43:29;100157.92;;;31.84;15.58
49529;BME280;35423;37.320;-121.762;2023-05-08T00:45:59;100162.01;;;31.64;15.58
49529;BME280;35423;37.320;-121.762;2023-05-08T00:48:24;100156.45;;;31.86;15.64
49529;BME280;35423;37.320;-121.762;2023-05-08T00:51:01;100158.88;;;31.82;15.50
49529;BME280;35423;37.320;-121.762;2023-05-08T00:53:30;100157.37;;;31.71;15.56
49529;BME280;35423;37.320;-121.762;2023-05-08T00:55:53;100157.64;;;31.64;15.67
49529;BME280;35423;37.320;-121.762;2023-05-08T00:58:27;100159.22;;;31.52;15.74
49529;BME280;35423;37.320;-121.762;2023-05-08T01:00:55;100157.43;;;31.44;15.80
49529;BME280;35423;37.320;-121.762;2023-05-08T01:03:23;100155.70;;;31.34;15.84
49529;BME280;35423;37.320;-121.762;2023-05-08T01:05:48;100154.35;;;31.24;15.89
49529;BME280;35423;37.320;-121.762;2023-05-08T01:08:19;100158.15;;;31.10;15.87
49529;BME280;35423;37.320;-121.762;2023-05-08T01:10:57;100157.88;;;31.29;15.93
49529;BME280;35423;37.320;-121.762;2023-05-08T01:13:24;100156.66;;;31.40;15.87
49529;BME280;35423;37.320;-121.762;2023-05-08T01:15:50;100155.18;;;31.10;15.89
49529;BME280;35423;37.320;-121.762;2023-05-08T01:18:16;100157.23;;;30.69;16.09
49529;BME280;35423;37.320;-121.762;2023-05-08T01:20:55;100158.10;;;31.07;16.15
49529;BME280;35423;37.320;-121.762;2023-05-08T01:25:58;100160.84;;;30.68;16.34
49529;BME280;35423;37.320;-121.762;2023-05-08T01:28:23;100162.81;;;30.61;16.33
49529;BME280;35423;37.320;-121.762;2023-05-08T01:30:48;100163.05;;;30.74;16.34
49529;BME280;35423;37.320;-121.762;2023-05-08T01:33:25;100161.80;;;30.64;16.34
49529;BME280;35423;37.320;-121.762;2023-05-08T01:35:52;100161.57;;;30.31;16.42
49529;BME280;35423;37.320;-121.762;2023-05-08T01:38:20;100164.52;;;30.34;16.44
49529;BME280;35423;37.320;-121.762;2023-05-08T01:40:51;100162.47;;;30.22;16.49
49529;BME280;35423;37.320;-121.762;2023-05-08T01:43:21;100158.54;;;30.10;16.57
49529;BME280;35423;37.320;-121.762;2023-05-08T01:45:47;100162.91;;;29.97;16.64
49529;BME280;35423;37.320;-121.762;2023-05-08T01:48:12;100162.23;;;29.81;16.77
49529;BME280;35423;37.320;-121.762;2023-05-08T01:50:41;100165.95;;;29.65;16.89
49529;BME280;35423;37.320;-121.762;2023-05-08T01:53:08;100168.01;;;29.34;16.99
49529;BME280;35423;37.320;-121.762;2023-05-08T01:55:33;100174.26;;;29.49;16.97
49529;BME280;35423;37.320;-121.762;2023-05-08T01:58:07;100174.52;;;29.90;16.95
49529;BME280;35423;37.320;-121.762;2023-05-08T02:00:49;100171.69;;;29.53;16.96
49529;BME280;35423;37.320;-121.762;2023-05-08T02:03:21;100170.64;;;29.62;17.10
49529;BME280;35423;37.320;-121.762;2023-05-08T02:05:49;100172.57;;;29.06;17.16
49529;BME280;35423;37.320;-121.762;2023-05-08T02:08:24;100176.91;;;29.37;17.14
49529;BME280;35423;37.320;-121.762;2023-05-08T02:10:51;100179.43;;;29.18;17.25
49529;BME280;35423;37.320;-121.762;2023-05-08T02:13:18;100178.91;;;29.06;17.30
49529;BME280;35423;37.320;-121.762;2023-05-08T02:15:48;100183.60;;;28.89;17.50
49529;BME280;35423;37.320;-121.762;2023-05-08T02:18:22;100186.12;;;28.51;17.52
49529;BME280;35423;37.320;-121.762;2023-05-08T02:20:44;100186.76;;;28.58;17.57
49529;BME280;35423;37.320;-121.762;2023-05-08T02:23:12;100183.13;;;28.60;17.75
49529;BME280;35423;37.320;-121.762;2023-05-08T02:25:37;100187.22;;;28.20;17.86
49529;BME280;35423;37.320;-121.762;2023-05-08T02:28:03;100188.63;;;28.24;17.98
49529;BME280;35423;37.320;-121.762;2023-05-08T02:30:30;100189.55;;;27.99;18.17
49529;BME280;35423;37.320;-121.762;2023-05-08T02:33:01;100195.31;;;27.78;18.34
49529;BME280;35423;37.320;-121.762;2023-05-08T02:35:28;100196.19;;;27.87;18.53
49529;BME280;35423;37.320;-121.762;2023-05-08T02:37:55;100197.23;;;27.48;18.67
49529;BME280;35423;37.320;-121.762;2023-05-08T02:40:35;100201.68;;;27.46;18.89
49529;BME280;35423;37.320;-121.762;2023-05-08T02:43:04;100200.89;;;27.32;19.06
49529;BME280;35423;37.320;-121.762;2023-05-08T02:45:38;100199.71;;;27.24;19.11
49529;BME280;35423;37.320;-121.762;2023-05-08T02:48:06;100200.23;;;27.06;19.16
49529;BME280;35423;37.320;-121.762;2023-05-08T02:50:40;100201.83;;;27.07;19.36
49529;BME280;35423;37.320;-121.762;2023-05-08T02:52:53;100205.94;;;26.70;19.47
49529;BME280;35423;37.320;-121.762;2023-05-08T02:55:31;100208.71;;;26.81;19.65
49529;BME280;35423;37.320;-121.762;2023-05-08T02:58:05;100207.47;;;26.50;19.75
49529;BME280;35423;37.320;-121.762;2023-05-08T03:00:26;100202.96;;;26.61;19.84
49529;BME280;35423;37.320;-121.762;2023-05-08T03:03:03;100208.70;;;26.65;20.01
49529;BME280;35423;37.320;-121.762;2023-05-08T03:05:30;100207.22;;;26.56;20.14
49529;BME280;35423;37.320;-121.762;2023-05-08T03:08:01;100211.78;;;26.26;20.31
49529;BME280;35423;37.320;-121.762;2023-05-08T03:10:27;100212.34;;;26.45;20.41
49529;BME280;35423;37.320;-121.762;2023-05-08T03:13:02;100209.39;;;26.38;20.55
49529;BME280;35423;37.320;-121.762;2023-05-08T03:15:33;100212.90;;;26.27;20.57
49529;BME280;35423;37.320;-121.762;2023-05-08T03:17:57;100208.70;;;26.09;20.72
49529;BME280;35423;37.320;-121.762;2023-05-08T03:20:26;100212.97;;;26.20;20.85
49529;BME280;35423;37.320;-121.762;2023-05-08T03:22:50;100214.25;;;25.82;21.01
49529;BME280;35423;37.320;-121.762;2023-05-08T03:25:17;100215.38;;;25.30;21.02
49529;BME280;35423;37.320;-121.762;2023-05-08T03:27:48;100213.63;;;25.63;21.13
49529;BME280;35423;37.320;-121.762;2023-05-08T03:30:14;100213.37;;;25.33;21.21
49529;BME280;35423;37.320;-121.762;2023-05-08T03:32:41;100213.94;;;25.48;21.33
49529;BME280;35423;37.320;-121.762;2023-05-08T03:35:07;100215.39;;;25.41;21.48
49529;BME280;35423;37.320;-121.762;2023-05-08T03:37:31;100223.38;;;25.55;21.68
49529;BME280;35423;37.320;-121.762;2023-05-08T03:40:00;100230.89;;;25.17;21.83
49529;BME280;35423;37.320;-121.762;2023-05-08T03:42:31;100232.59;;;24.89;21.79
49529;BME280;35423;37.320;-121.762;2023-05-08T03:44:57;100235.79;;;25.05;21.61
49529;BME280;35423;37.320;-121.762;2023-05-08T03:47:25;100244.55;;;25.34;21.56
49529;BME280;35423;37.320;-121.762;2023-05-08T03:49:50;100247.69;;;25.23;21.70
49529;BME280;35423;37.320;-121.762;2023-05-08T03:52:24;100247.27;;;24.90;21.92
49529;BME280;35423;37.320;-121.762;2023-05-08T03:54:52;100247.40;;;24.82;21.99
49529;BME280;35423;37.320;-121.762;2023-05-08T03:57:37;100246.85;;;24.91;22.02
49529;BME280;35423;37.320;-121.762;2023-05-08T04:00:05;100253.45;;;24.59;22.05
49529;BME280;35423;37.320;-121.762;2023-05-08T04:02:35;100256.71;;;24.39;22.24
49529;BME280;35423;37.320;-121.762;2023-05-08T04:05:02;100256.66;;;24.78;22.42
49529;BME280;35423;37.320;-121.762;2023-05-08T04:07:28;100256.17;;;24.43;22.58
49529;BME280;35423;37.320;-121.762;2023-05-08T04:09:57;100254.04;;;24.34;22.68
49529;BME280;35423;37.320;-121.762;2023-05-08T04:12:18;100255.49;;;24.37;22.71
49529;BME280;35423;37.320;-121.762;2023-05-08T04:14:44;100255.82;;;24.34;22.81
49529;BME280;35423;37.320;-121.762;2023-05-08T04:17:09;100255.36;;;24.23;22.87
49529;BME280;35423;37.320;-121.762;2023-05-08T04:19:38;100254.38;;;24.18;22.92
49529;BME280;35423;37.320;-121.762;2023-05-08T04:22:10;100256.87;;;24.01;22.99
49529;BME280;35423;37.320;-121.762;2023-05-08T04:24:41;100261.04;;;24.07;23.10
49529;BME280;35423;37.320;-121.762;2023-05-08T04:27:03;100267.07;;;23.72;23.28
49529;BME280;35423;37.320;-121.762;2023-05-08T04:29:35;100271.93;;;23.95;23.36
49529;BME280;35423;37.320;-121.762;2023-05-08T04:32:00;100276.98;;;23.55;23.48
49529;BME280;35423;37.320;-121.762;2023-05-08T04:34:27;100278.41;;;23.53;23.66
49529;BME280;35423;37.320;-121.762;2023-05-08T04:36:55;100279.95;;;23.71;23.71
49529;BME280;35423;37.320;-121.762;2023-05-08T04:39:22;100277.82;;;23.60;23.79
49529;BME280;35423;37.320;-121.762;2023-05-08T04:41:47;100277.52;;;23.49;23.93
49529;BME280;35423;37.320;-121.762;2023-05-08T04:44:15;100273.52;;;23.37;23.92
49529;BME280;35423;37.320;-121.762;2023-05-08T04:46:49;100273.27;;;23.28;24.08
49529;BME280;35423;37.320;-121.762;2023-05-08T04:49:22;100275.78;;;23.45;24.20
49529;BME280;35423;37.320;-121.762;2023-05-08T04:51:47;100278.94;;;23.34;24.23
49529;BME280;35423;37.320;-121.762;2023-05-08T04:54:26;100283.07;;;23.28;24.32
49529;BME280;35423;37.320;-121.762;2023-05-08T04:57:00;100281.83;;;23.25;24.38
49529;BME280;35423;37.320;-121.762;2023-05-08T04:59:23;100279.81;;;22.94;24.39
49529;BME280;35423;37.320;-121.762;2023-05-08T05:01:48;100280.23;;;23.09;24.46
49529;BME280;35423;37.320;-121.762;2023-05-08T05:04:15;100279.72;;;23.06;24.46
49529;BME280;35423;37.320;-121.762;2023-05-08T05:06:41;100281.43;;;22.77;24.74
49529;BME280;35423;37.320;-121.762;2023-05-08T05:09:06;100278.17;;;22.16;24.81
49529;BME280;35423;37.320;-121.762;2023-05-08T05:11:37;100278.48;;;22.55;24.89
49529;BME280;35423;37.320;-121.762;2023-05-08T05:14:08;100277.20;;;22.84;24.97
49529;BME280;35423;37.320;-121.762;2023-05-08T05:16:37;100279.29;;;22.63;25.13
49529;BME280;35423;37.320;-121.762;2023-05-08T05:19:28;100279.86;;;22.57;25.27
49529;BME280;35423;37.320;-121.762;2023-05-08T05:21:54;100278.81;;;22.28;25.27
49529;BME280;35423;37.320;-121.762;2023-05-08T05:24:31;100277.10;;;22.53;25.32
49529;BME280;35423;37.320;-121.762;2023-05-08T05:26:57;100275.68;;;22.45;25.39
49529;BME280;35423;37.320;-121.762;2023-05-08T05:29:23;100273.98;;;22.35;25.45
49529;BME280;35423;37.320;-121.762;2023-05-08T05:31:49;100274.92;;;22.29;25.47
49529;BME280;35423;37.320;-121.762;2023-05-08T05:34:17;100272.43;;;22.24;25.50
49529;BME280;35423;37.320;-121.762;2023-05-08T05:36:44;100273.75;;;22.12;25.57
49529;BME280;35423;37.320;-121.762;2023-05-08T05:39:08;100274.89;;;22.01;25.69
49529;BME280;35423;37.320;-121.762;2023-05-08T05:41:40;100270.88;;;21.88;25.79
49529;BME280;35423;37.320;-121.762;2023-05-08T05:44:18;100265.07;;;21.77;25.85
49529;BME280;35423;37.320;-121.762;2023-05-08T05:46:49;100259.48;;;21.75;25.85
49529;BME280;35423;37.320;-121.762;2023-05-08T05:49:20;100256.36;;;21.72;25.81
49529;BME280;35423;37.320;-121.762;2023-05-08T05:51:48;100254.85;;;21.59;25.86
49529;BME280;35423;37.320;-121.762;2023-05-08T05:54:15;100252.23;;;21.73;25.96
49529;BME280;35423;37.320;-121.762;2023-05-08T05:56:44;100252.09;;;21.44;26.04
49529;BME280;35423;37.320;-121.762;2023-05-08T05:59:16;100247.89;;;21.80;26.11
49529;BME280;35423;37.320;-121.762;2023-05-08T06:01:43;100248.04;;;21.28;26.19
49529;BME280;35423;37.320;-121.762;2023-05-08T06:04:19;100243.72;;;21.45;26.25
49529;BME280;35423;37.320;-121.762;2023-05-08T06:06:55;100239.53;;;21.15;26.27
49529;BME280;35423;37.320;-121.762;2023-05-08T06:09:22;100236.59;;;21.01;26.27
49529;BME280;35423;37.320;-121.762;2023-05-08T06:11:48;100234.16;;;21.39;26.24
49529;BME280;35423;37.320;-121.762;2023-05-08T06:14:15;100233.25;;;21.13;26.19
49529;BME280;35423;37.320;-121.762;2023-05-08T06:16:41;100232.87;;;21.11;26.21
49529;BME280;35423;37.320;-121.762;2023-05-08T06:19:07;100231.31;;;21.23;26.20
49529;BME280;35423;37.320;-121.762;2023-05-08T06:21:31;100231.99;;;21.21;26.22
49529;BME280;35423;37.320;-121.762;2023-05-08T06:23:57;100233.35;;;21.17;26.21
49529;BME280;35423;37.320;-121.762;2023-05-08T06:26:26;100233.51;;;20.64;26.35
49529;BME280;35423;37.320;-121.762;2023-05-08T06:28:51;100239.33;;;21.07;26.39
49529;BME280;35423;37.320;-121.762;2023-05-08T06:31:18;100242.44;;;21.02;26.46
49529;BME280;35423;37.320;-121.762;2023-05-08T06:33:44;100247.19;;;20.77;26.48
49529;BME280;35423;37.320;-121.762;2023-05-08T06:36:14;100254.12;;;20.94;26.56
49529;BME280;35423;37.320;-121.762;2023-05-08T06:38:41;100257.87;;;20.87;26.66
49529;BME280;35423;37.320;-121.762;2023-05-08T06:41:06;100263.46;;;20.61;26.62
49529;BME280;35423;37.320;-121.762;2023-05-08T06:43:31;100265.88;;;20.82;26.66
49529;BME280;35423;37.320;-121.762;2023-05-08T06:45:59;100261.90;;;20.74;26.67
49529;BME280;35423;37.320;-121.762;2023-05-08T06:48:31;100265.87;;;20.99;26.67
49529;BME280;35423;37.320;-121.762;2023-05-08T06:50:57;100270.87;;;20.47;26.71
49529;BME280;35423;37.320;-121.762;2023-05-08T06:53:25;100272.03;;;20.65;26.75
49529;BME280;35423;37.320;-121.762;2023-05-08T06:55:55;100271.65;;;20.39;26.83
49529;BME280;35423;37.320;-121.762;2023-05-08T06:58:29;100272.18;;;20.83;26.92
49529;BME280;35423;37.320;-121.762;2023-05-08T07:01:03;100276.00;;;20.32;26.96
49529;BME280;35423;37.320;-121.762;2023-05-08T07:03:30;100277.55;;;20.53;27.01
49529;BME280;35423;37.320;-121.762;2023-05-08T07:06:01;100284.59;;;20.50;27.06
49529;BME280;35423;37.320;-121.762;2023-05-08T07:08:35;100290.18;;;20.74;27.14
49529;BME280;35423;37.320;-121.762;2023-05-08T07:11:02;100289.07;;;20.92;27.24
49529;BME280;35423;37.320;-121.762;2023-05-08T07:13:28;100289.53;;;20.68;27.26
49529;BME280;35423;37.320;-121.762;2023-05-08T07:15:54;100288.77;;;20.37;27.33
49529;BME280;35423;37.320;-121.762;2023-05-08T07:18:21;100287.03;;;20.62;27.29
49529;BME280;35423;37.320;-121.762;2023-05-08T07:20:51;100286.28;;;20.55;27.36
49529;BME280;35423;37.320;-121.762;2023-05-08T07:23:16;100287.29;;;20.80;27.36
49529;BME280;35423;37.320;-121.762;2023-05-08T07:25:42;100291.21;;;20.85;27.38
49529;BME280;35423;37.320;-121.762;2023-05-08T07:28:14;100292.74;;;20.68;27.35
49529;BME280;35423;37.320;-121.762;2023-05-08T07:30:41;100284.08;;;20.46;27.33
49529;BME280;35423;37.320;-121.762;2023-05-08T07:33:04;100279.68;;;20.75;27.24
49529;BME280;35423;37.320;-121.762;2023-05-08T07:35:31;100276.42;;;20.98;27.24
49529;BME280;35423;37.320;-121.762;2023-05-08T07:37:59;100274.40;;;20.39;27.27
49529;BME280;35423;37.320;-121.762;2023-05-08T07:40:29;100269.17;;;20.30;27.32
49529;BME280;35423;37.320;-121.762;2023-05-08T07:42:55;100263.86;;;20.67;27.36
49529;BME280;35423;37.320;-121.762;2023-05-08T07:45:20;100260.29;;;20.36;27.39
49529;BME280;35423;37.320;-121.762;2023-05-08T07:47:51;100256.14;;;20.24;27.38
49529;BME280;35423;37.320;-121.762;2023-05-08T07:50:13;100256.49;;;20.14;27.41
49529;BME280;35423;37.320;-121.762;2023-05-08T07:52:39;100257.26;;;20.04;27.44
49529;BME280;35423;37.320;-121.762;2023-05-08T07:55:05;100256.43;;;20.19;27.46
49529;BME280;35423;37.320;-121.762;2023-05-08T07:57:36;100256.51;;;19.90;27.51
49529;BME280;35423;37.320;-121.762;2023-05-08T08:00:04;100261.41;;;20.03;27.66
49529;BME280;35423;37.320;-121.762;2023-05-08T08:02:36;100259.87;;;19.99;27.71
49529;BME280;35423;37.320;-121.762;2023-05-08T08:05:02;100254.61;;;19.92;27.78
49529;BME280;35423;37.320;-121.762;2023-05-08T08:07:29;100250.14;;;19.85;27.81
49529;BME280;35423;37.320;-121.762;2023-05-08T08:09:55;100245.40;;;19.80;27.63
49529;BME280;35423;37.320;-121.762;2023-05-08T08:12:20;100242.97;;;19.51;27.84
49529;BME280;35423;37.320;-121.762;2023-05-08T08:14:48;100240.25;;;19.66;27.85
49529;BME280;35423;37.320;-121.762;2023-05-08T08:17:13;100238.95;;;19.61;27.90
49529;BME280;35423;37.320;-121.762;2023-05-08T08:19:47;100241.02;;;19.57;27.92
49529;BME280;35423;37.320;-121.762;2023-05-08T08:22:12;100240.47;;;19.47;28.07
49529;BME280;35423;37.320;-121.762;2023-05-08T08:24:40;100239.91;;;19.42;28.11
49529;BME280;35423;37.320;-121.762;2023-05-08T08:27:06;100236.23;;;19.36;28.21
49529;BME280;35423;37.320;-121.762;2023-05-08T08:29:31;100233.33;;;19.32;28.31
49529;BME280;35423;37.320;-121.762;2023-05-08T08:31:57;100233.94;;;19.30;28.36
49529;BME280;35423;37.320;-121.762;2023-05-08T08:34:23;100235.51;;;19.27;28.39
49529;BME280;35423;37.320;-121.762;2023-05-08T08:36:48;100240.08;;;19.23;28.42
49529;BME280;35423;37.320;-121.762;2023-05-08T08:39:17;100239.17;;;19.39;28.51
49529;BME280;35423;37.320;-121.762;2023-05-08T08:41:46;100237.61;;;19.52;28.53
49529;BME280;35423;37.320;-121.762;2023-05-08T08:44:13;100240.07;;;18.96;28.62
49529;BME280;35423;37.320;-121.762;2023-05-08T08:46:50;100242.12;;;19.40;28.62
49529;BME280;35423;37.320;-121.762;2023-05-08T08:49:13;100240.52;;;19.32;28.70
49529;BME280;35423;37.320;-121.762;2023-05-08T08:51:49;100235.09;;;18.99;28.79
49529;BME280;35423;37.320;-121.762;2023-05-08T08:54:12;100228.88;;;19.15;28.89
49529;BME280;35423;37.320;-121.762;2023-05-08T08:56:40;100224.00;;;18.56;28.98
49529;BME280;35423;37.320;-121.762;2023-05-08T08:59:04;100222.94;;;18.99;29.03
49529;BME280;35423;37.320;-121.762;2023-05-08T09:01:34;100223.16;;;18.97;29.13
49529;BME280;35423;37.320;-121.762;2023-05-08T09:03:59;100221.43;;;18.71;29.03
49529;BME280;35423;37.320;-121.762;2023-05-08T09:06:25;100222.54;;;18.91;28.94
49529;BME280;35423;37.320;-121.762;2023-05-08T09:08:54;100219.18;;;18.79;29.03
49529;BME280;35423;37.320;-121.762;2023-05-08T09:11:17;100220.11;;;18.95;29.05
49529;BME280;35423;37.320;-121.762;2023-05-08T09:13:49;100217.82;;;18.66;29.09
49529;BME280;35423;37.320;-121.762;2023-05-08T09:16:18;100214.77;;;18.62;29.13
49529;BME280;35423;37.320;-121.762;2023-05-08T09:18:50;100215.76;;;18.78;29.14
49529;BME280;35423;37.320;-121.762;2023-05-08T09:21:16;100217.14;;;18.51;29.16
49529;BME280;35423;37.320;-121.762;2023-05-08T09:26:09;100211.48;;;18.61;29.34
49529;BME280;35423;37.320;-121.762;2023-05-08T09:28:35;100213.33;;;18.80;29.41
49529;BME280;35423;37.320;-121.762;2023-05-08T09:31:02;100216.05;;;18.22;29.52
49529;BME280;35423;37.320;-121.762;2023-05-08T09:33:29;100217.08;;;18.17;29.55
49529;BME280;35423;37.320;-121.762;2023-05-08T09:35:57;100213.32;;;18.31;29.59
49529;BME280;35423;37.320;-121.762;2023-05-08T09:38:31;100211.59;;;17.97;29.69
49529;BME280;35423;37.320;-121.762;2023-05-08T09:41:06;100207.40;;;17.88;29.77
49529;BME280;35423;37.320;-121.762;2023-05-08T09:43:20;100214.26;;;18.03;29.81
49529;BME280;35423;37.320;-121.762;2023-05-08T09:45:47;100218.48;;;17.95;29.88
49529;BME280;35423;37.320;-121.762;2023-05-08T09:48:37;100215.81;;;17.91;29.87
49529;BME280;35423;37.320;-121.762;2023-05-08T09:51:07;100214.91;;;17.83;29.93
49529;BME280;35423;37.320;-121.762;2023-05-08T09:53:31;100217.45;;;17.59;29.99
49529;BME280;35423;37.320;-121.762;2023-05-08T09:55:59;100217.16;;;18.11;29.99
49529;BME280;35423;37.320;-121.762;2023-05-08T09:58:24;100216.67;;;17.83;29.98
49529;BME280;35423;37.320;-121.762;2023-05-08T10:00:50;100217.09;;;17.79;30.00
49529;BME280;35423;37.320;-121.762;2023-05-08T10:03:18;100213.91;;;18.03;29.99
49529;BME280;35423;37.320;-121.762;2023-05-08T10:05:46;100213.12;;;17.99;29.96
49529;BME280;35423;37.320;-121.762;2023-05-08T10:08:18;100215.96;;;17.65;29.97
49529;BME280;35423;37.320;-121.762;2023-05-08T10:10:38;100212.99;;;17.83;29.97
49529;BME280;35423;37.320;-121.762;2023-05-08T10:13:09;100205.76;;;17.73;30.02
49529;BME280;35423;37.320;-121.762;2023-05-08T10:15:37;100196.08;;;17.65;30.01
49529;BME280;35423;37.320;-121.762;2023-05-08T10:18:14;100197.62;;;17.59;30.07
49529;BME280;35423;37.320;-121.762;2023-05-08T10:20:43;100206.92;;;17.78;30.09
49529;BME280;35423;37.320;-121.762;2023-05-08T10:23:14;100210.98;;;17.54;30.09
49529;BME280;35423;37.320;-121.762;2023-05-08T10:25:44;100211.86;;;17.51;30.15
49529;BME280;35423;37.320;-121.762;2023-05-08T10:28:12;100209.77;;;17.74;30.13
49529;BME280;35423;37.320;-121.762;2023-05-08T10:30:31;100206.18;;;17.47;30.18
49529;BME280;35423;37.320;-121.762;2023-05-08T10:33:09;100204.70;;;17.67;30.18
49529;BME280;35423;37.320;-121.762;2023-05-08T10:35:32;100208.45;;;17.39;30.18
49529;BME280;35423;37.320;-121.762;2023-05-08T10:37:58;100209.54;;;17.34;30.20
49529;BME280;35423;37.320;-121.762;2023-05-08T10:40:25;100209.46;;;17.30;30.23
49529;BME280;35423;37.320;-121.762;2023-05-08T10:42:52;100210.34;;;17.27;30.24
49529;BME280;35423;37.320;-121.762;2023-05-08T10:45:17;100214.93;;;17.23;30.28
49529;BME280;35423;37.320;-121.762;2023-05-08T10:47:50;100213.86;;;17.18;30.34
49529;BME280;35423;37.320;-121.762;2023-05-08T10:50:24;100213.07;;;17.15;30.36
49529;BME280;35423;37.320;-121.762;2023-05-08T10:52:45;100213.72;;;17.15;30.35
49529;BME280;35423;37.320;-121.762;2023-05-08T10:55:14;100214.62;;;17.10;30.36
49529;BME280;35423;37.320;-121.762;2023-05-08T11:00:17;100213.62;;;16.97;30.54
49529;BME280;35423;37.320;-121.762;2023-05-08T11:02:48;100212.84;;;16.92;30.63
49529;BME280;35423;37.320;-121.762;2023-05-08T11:05:14;100215.67;;;16.91;30.69
49529;BME280;35423;37.320;-121.762;2023-05-08T11:07:54;100220.33;;;17.30;30.75
49529;BME280;35423;37.320;-121.762;2023-05-08T11:10:29;100224.33;;;16.82;30.79
49529;BME280;35423;37.320;-121.762;2023-05-08T11:12:53;100229.55;;;16.81;30.84
49529;BME280;35423;37.320;-121.762;2023-05-08T11:15:13;100227.90;;;17.00;30.84
49529;BME280;35423;37.320;-121.762;2023-05-08T11:17:39;100232.95;;;16.77;30.82
49529;BME280;35423;37.320;-121.762;2023-05-08T11:20:06;100235.02;;;16.75;30.77
49529;BME280;35423;37.320;-121.762;2023-05-08T11:22:34;100237.46;;;16.72;30.71
49529;BME280;35423;37.320;-121.762;2023-05-08T11:25:01;100236.23;;;17.15;30.64
49529;BME280;35423;37.320;-121.762;2023-05-08T11:32:16;100237.00;;;16.48;30.80
49529;BME280;35423;37.320;-121.762;2023-05-08T11:34:46;100243.67;;;16.66;30.83
49529;BME280;35423;37.320;-121.762;2023-05-08T11:37:09;100245.68;;;17.07;30.89
49529;BME280;35423;37.320;-121.762;2023-05-08T11:39:38;100245.22;;;16.54;30.90
49529;BME280;35423;37.320;-121.762;2023-05-08T11:44:33;100250.49;;;16.45;30.95
49529;BME280;35423;37.320;-121.762;2023-05-08T11:47:02;100248.41;;;16.42;30.98
49529;BME280;35423;37.320;-121.762;2023-05-08T11:49:24;100243.81;;;16.37;31.00
49529;BME280;35423;37.320;-121.762;2023-05-08T11:51:52;100246.06;;;16.56;30.95
49529;BME280;35423;37.320;-121.762;2023-05-08T11:54:18;100245.85;;;16.55;30.92
49529;BME280;35423;37.320;-121.762;2023-05-08T11:56:54;100248.55;;;16.51;30.97
49529;BME280;35423;37.320;-121.762;2023-05-08T11:59:20;100248.01;;;16.48;30.99
49529;BME280;35423;37.320;-121.762;2023-05-08T12:01:48;100248.13;;;16.44;30.99
49529;BME280;35423;37.320;-121.762;2023-05-08T12:04:12;100245.01;;;16.67;31.05
49529;BME280;35423;37.320;-121.762;2023-05-08T12:06:39;100244.46;;;16.37;31.08
49529;BME280;35423;37.320;-121.762;2023-05-08T12:09:09;100240.51;;;16.37;31.10
49529;BME280;35423;37.320;-121.762;2023-05-08T12:11:29;100240.47;;;16.65;31.13
49529;BME280;35423;37.320;-121.762;2023-05-08T12:13:59;100242.21;;;16.41;31.23
49529;BME280;35423;37.320;-121.762;2023-05-08T12:16:24;100242.40;;;16.48;31.27
49529;BME280;35423;37.320;-121.762;2023-05-08T12:18:55;100244.04;;;16.33;31.33
49529;BME280;35423;37.320;-121.762;2023-05-08T12:21:20;100242.75;;;16.43;31.28
49529;BME280;35423;37.320;-121.762;2023-05-08T12:23:45;100240.59;;;16.74;31.26
49529;BME280;35423;37.320;-121.762;2023-05-08T12:26:13;100237.67;;;16.81;31.18
49529;BME280;35423;37.320;-121.762;2023-05-08T12:28:53;100236.25;;;16.78;31.17
49529;BME280;35423;37.320;-121.762;2023-05-08T12:31:14;100235.15;;;16.47;31.26
49529;BME280;35423;37.320;-121.762;2023-05-08T12:33:42;100234.61;;;16.59;31.35
49529;BME280;35423;37.320;-121.762;2023-05-08T12:36:10;100236.49;;;16.25;31.49
49529;BME280;35423;37.320;-121.762;2023-05-08T12:38:37;100233.39;;;16.68;31.53
49529;BME280;35423;37.320;-121.762;2023-05-08T12:41:05;100223.63;;;16.53;31.74